createdAt,value
2022-10-31T00:04:59.277Z,97328.44
2022-10-31T00:10:19.812Z,97320.69
2022-10-31T00:15:41.537Z,97329.94
2022-10-31T00:21:03.126Z,97329.19
2022-10-31T00:26:23.887Z,97332.25
2022-10-31T00:31:44.459Z,97328.66
2022-10-31T00:37:05.043Z,97325.66
2022-10-31T00:42:25.837Z,97336.13
2022-10-31T00:47:46.405Z,97338.63
2022-10-31T00:53:07.267Z,97325.22
2022-10-31T00:58:27.980Z,97327.19
2022-10-31T01:03:48.654Z,97335.59
2022-10-31T01:09:09.197Z,97328.66
2022-10-31T01:14:29.792Z,97333.97
2022-10-31T01:19:51.925Z,97334.00
2022-10-31T01:25:13.408Z,97328.31
2022-10-31T01:30:34.044Z,97324.97
2022-10-31T01:35:54.668Z,97324.59
2022-10-31T01:41:18.621Z,97334.41
2022-10-31T01:46:45.824Z,97333.31
2022-10-31T01:52:26.158Z,97336.78
2022-10-31T01:57:52.973Z,97331.69
2022-10-31T02:03:14.127Z,97323.56
2022-10-31T02:08:37.247Z,97323.88
2022-10-31T02:14:01.390Z,97325.16
2022-10-31T02:19:35.547Z,97327.16
2022-10-31T02:25:39.669Z,97319.69
2022-10-31T02:31:22.173Z,97329.09
2022-10-31T02:37:07.756Z,97325.09
2022-10-31T02:42:40.008Z,97332.25
2022-10-31T02:48:13.621Z,97330.06
2022-10-31T02:53:37.441Z,97335.16
2022-10-31T02:59:04.942Z,97332.69
2022-10-31T03:04:44.538Z,97348.25
2022-10-31T03:10:10.489Z,97341.50
2022-10-31T03:15:35.870Z,97344.53
2022-10-31T03:21:19.685Z,97340.13
2022-10-31T03:26:48.652Z,97343.69
2022-10-31T03:32:14.284Z,97336.81
2022-10-31T03:37:37.625Z,97341.50
2022-10-31T03:43:08.756Z,97338.88
2022-10-31T03:48:30.012Z,97341.78
2022-10-31T03:54:03.648Z,97345.78
2022-10-31T03:59:36.316Z,97353.34
2022-10-31T04:04:58.223Z,97358.56
2022-10-31T04:10:20.029Z,97355.69
2022-10-31T04:15:43.659Z,97356.22
2022-10-31T04:21:07.623Z,97353.06
2022-10-31T04:26:28.138Z,97362.16
2022-10-31T04:31:48.800Z,97361.19
2022-10-31T04:37:09.269Z,97377.06
2022-10-31T04:42:31.242Z,97372.63
2022-10-31T04:47:57.212Z,97369.22
2022-10-31T04:53:18.291Z,97372.50
2022-10-31T04:58:59.001Z,97377.16
2022-10-31T05:04:22.653Z,97377.16
2022-10-31T05:09:43.273Z,97380.09
2022-10-31T05:15:05.091Z,97384.13
2022-10-31T05:21:00.328Z,97385.09
2022-10-31T05:26:28.380Z,97385.91
2022-10-31T05:31:49.969Z,97376.84
2022-10-31T05:37:30.775Z,97382.78
2022-10-31T05:42:54.134Z,97383.19
2022-10-31T05:48:15.966Z,97387.28
2022-10-31T05:54:16.144Z,97390.25
2022-10-31T05:59:39.021Z,97394.75
2022-10-31T06:04:59.637Z,97401.38
2022-10-31T06:10:22.058Z,97394.09
2022-10-31T06:15:46.814Z,97402.84
2022-10-31T06:21:07.392Z,97408.06
2022-10-31T06:26:30.064Z,97411.34
2022-10-31T06:31:54.353Z,97414.59
2022-10-31T06:37:15.701Z,97418.34
2022-10-31T06:42:40.108Z,97424.09
2022-10-31T06:48:16.593Z,97421.69
2022-10-31T06:54:14.076Z,97429.25
2022-10-31T06:59:35.026Z,97434.19
2022-10-31T07:05:05.004Z,97426.00
2022-10-31T07:10:27.155Z,97432.38
2022-10-31T07:15:55.624Z,97436.13
2022-10-31T07:21:17.286Z,97438.47
2022-10-31T07:26:38.263Z,97442.50
2022-10-31T07:31:58.875Z,97441.47
2022-10-31T07:37:22.501Z,97440.97
2022-10-31T07:42:45.013Z,97446.53
2022-10-31T07:48:25.592Z,97446.75
2022-10-31T07:54:05.036Z,97443.41
2022-10-31T07:59:28.305Z,97455.47
2022-10-31T08:04:50.297Z,97450.13
2022-10-31T08:10:29.618Z,97442.75
2022-10-31T08:15:52.781Z,97442.16
2022-10-31T08:21:18.113Z,97437.63
2022-10-31T08:26:39.758Z,97434.31
2022-10-31T08:32:03.746Z,97438.44
2022-10-31T08:37:43.559Z,97437.63
2022-10-31T08:43:16.032Z,97441.88
2022-10-31T08:48:37.097Z,97442.28
2022-10-31T08:53:58.897Z,97439.34
2022-10-31T08:59:34.970Z,97439.97
2022-10-31T09:05:16.049Z,97429.53
2022-10-31T09:10:38.055Z,97432.28
2022-10-31T09:15:59.799Z,97435.47
2022-10-31T09:21:20.508Z,97425.25
2022-10-31T09:26:41.638Z,97414.19
2022-10-31T09:32:09.303Z,97417.09
2022-10-31T09:37:35.009Z,97421.66
2022-10-31T09:43:20.533Z,97426.44
2022-10-31T09:49:00.531Z,97428.06
2022-10-31T09:54:41.369Z,97423.25
2022-10-31T10:00:06.049Z,97430.41
2022-10-31T10:05:58.657Z,97422.00
2022-10-31T10:11:39.231Z,97428.66
2022-10-31T10:17:19.532Z,97426.63
2022-10-31T10:22:52.484Z,97422.03
2022-10-31T10:28:45.565Z,97416.31
2022-10-31T10:34:17.924Z,97413.69
2022-10-31T10:39:47.164Z,97407.59
2022-10-31T10:45:36.027Z,97397.06
2022-10-31T10:50:57.700Z,97400.53
2022-10-31T10:56:56.314Z,97390.97
2022-10-31T11:02:28.780Z,97372.84
2022-10-31T11:07:49.480Z,97384.38
2022-10-31T11:13:13.198Z,97382.38
2022-10-31T11:18:38.504Z,97389.44
2022-10-31T11:24:11.007Z,97395.38
2022-10-31T11:29:31.910Z,97379.22
2022-10-31T11:35:00.123Z,97375.38
2022-10-31T11:40:26.579Z,97373.50
2022-10-31T11:45:47.612Z,97369.31
2022-10-31T11:51:09.516Z,97360.56
2022-10-31T11:56:43.371Z,97350.00
2022-10-31T12:02:19.791Z,97342.09
2022-10-31T12:07:40.388Z,97336.47
2022-10-31T12:13:31.476Z,97332.34
2022-10-31T12:19:23.056Z,97331.34
2022-10-31T12:25:08.774Z,97322.63
2022-10-31T12:31:22.656Z,97321.16
2022-10-31T12:37:08.008Z,97317.34
2022-10-31T12:42:46.972Z,97315.22
2022-10-31T12:48:16.689Z,97306.25
2022-10-31T12:54:02.414Z,97305.16
2022-10-31T12:59:33.637Z,97301.69
2022-10-31T13:05:25.484Z,97298.75
2022-10-31T13:10:57.075Z,97299.09
2022-10-31T13:16:21.491Z,97297.44
2022-10-31T13:22:18.817Z,97289.72
2022-10-31T13:28:00.501Z,97289.72
2022-10-31T13:34:02.517Z,97284.25
2022-10-31T13:39:49.076Z,97274.84
2022-10-31T13:45:19.599Z,97275.19
2022-10-31T13:50:41.217Z,97263.94
2022-10-31T13:56:19.128Z,97256.53
2022-10-31T14:01:57.529Z,97261.00
2022-10-31T14:07:22.323Z,97255.88
2022-10-31T14:12:46.372Z,97242.53
2022-10-31T14:18:22.998Z,97236.97
2022-10-31T14:23:45.969Z,97231.75
2022-10-31T14:29:14.457Z,97233.72
2022-10-31T14:34:37.738Z,97230.31
2022-10-31T14:40:19.957Z,97232.34
2022-10-31T14:45:59.948Z,97226.66
2022-10-31T14:51:30.638Z,97232.31
2022-10-31T14:56:56.251Z,97222.38
2022-10-31T15:02:25.645Z,97220.38
2022-10-31T15:07:52.796Z,97209.88
2022-10-31T15:13:20.827Z,97209.25
2022-10-31T15:18:50.519Z,97204.34
2022-10-31T15:24:16.873Z,97201.09
2022-10-31T15:29:37.847Z,97206.34
2022-10-31T15:34:58.639Z,97199.91
2022-10-31T15:40:21.971Z,97201.41
2022-10-31T15:45:43.676Z,97200.75
2022-10-31T15:51:05.979Z,97186.44
2022-10-31T15:56:30.387Z,97183.81
2022-10-31T16:02:02.892Z,97193.84
2022-10-31T16:07:24.775Z,97185.28
2022-10-31T16:12:46.983Z,97180.66
2022-10-31T16:18:12.560Z,97177.69
2022-10-31T16:23:33.448Z,97171.09
2022-10-31T16:29:03.286Z,97168.59
2022-10-31T16:34:27.061Z,97173.84
2022-10-31T16:39:48.022Z,97162.69
2022-10-31T16:45:15.139Z,97160.22
2022-10-31T16:50:36.258Z,97169.56
2022-10-31T16:56:03.352Z,97161.50
2022-10-31T17:01:24.245Z,97157.88
2022-10-31T17:06:44.868Z,97163.53
2022-10-31T17:12:08.029Z,97165.03
2022-10-31T17:17:28.793Z,97158.00
2022-10-31T17:22:49.670Z,97157.69
2022-10-31T17:28:13.802Z,97156.31
2022-10-31T17:33:34.368Z,97160.25
2022-10-31T17:38:55.085Z,97153.94
2022-10-31T17:44:15.770Z,97144.13
2022-10-31T17:49:36.406Z,97134.31
2022-10-31T17:54:57.252Z,97137.78
2022-10-31T18:00:25.886Z,97130.53
2022-10-31T18:05:57.771Z,97136.41
2022-10-31T18:11:21.339Z,97126.50
2022-10-31T18:16:42.678Z,97126.28
2022-10-31T18:22:04.084Z,97120.91
2022-10-31T18:27:25.038Z,97108.91
2022-10-31T18:32:50.262Z,97108.13
2022-10-31T18:38:11.350Z,97113.84
2022-10-31T18:43:32.344Z,97126.00
2022-10-31T18:48:53.442Z,97115.38
2022-10-31T18:54:14.082Z,97102.69
2022-10-31T18:59:34.763Z,97099.78
2022-10-31T19:04:55.352Z,97098.41
2022-10-31T19:10:16.301Z,97096.44
2022-10-31T19:15:37.523Z,97093.53
2022-10-31T19:20:58.285Z,97090.06
2022-10-31T19:26:19.296Z,97077.91
2022-10-31T19:31:40.908Z,97074.41
2022-10-31T19:37:01.923Z,97073.41
2022-10-31T19:42:24.349Z,97073.78
2022-10-31T19:47:46.220Z,97072.75
2022-10-31T19:53:07.477Z,97073.00
2022-10-31T19:58:28.977Z,97071.13
2022-10-31T20:03:50.723Z,97073.03
2022-10-31T20:09:13.930Z,97067.38
2022-10-31T20:14:36.313Z,97070.78
2022-10-31T20:19:56.912Z,97065.59
2022-10-31T20:25:19.003Z,97060.56
2022-10-31T20:30:40.020Z,97059.41
2022-10-31T20:36:07.287Z,97061.19
2022-10-31T20:41:28.006Z,97061.03
2022-10-31T20:46:48.685Z,97048.03
2022-10-31T20:52:09.351Z,97041.41
2022-10-31T20:57:30.095Z,97034.22
2022-10-31T21:02:50.646Z,97036.59
2022-10-31T21:08:11.249Z,97037.63
2022-10-31T21:13:32.526Z,97041.47
2022-10-31T21:18:54.881Z,97048.19
2022-10-31T21:29:39.785Z,97051.13
2022-10-31T21:35:00.605Z,97048.38
2022-10-31T21:40:21.015Z,97032.44
2022-10-31T21:45:41.604Z,97030.44
2022-10-31T21:51:06.173Z,97034.34
2022-10-31T21:56:27.192Z,97037.75
2022-10-31T22:01:50.421Z,97034.50
2022-10-31T22:07:11.267Z,97017.19
2022-10-31T22:12:32.189Z,97019.53
2022-10-31T22:17:53.697Z,97008.13
2022-10-31T22:23:14.378Z,97005.78
2022-10-31T22:28:35.863Z,97013.09
2022-10-31T22:33:57.437Z,97019.53
2022-10-31T22:39:18.417Z,97021.44
2022-10-31T22:44:38.883Z,97016.78
2022-10-31T22:49:59.595Z,96999.72
2022-10-31T22:55:20.181Z,96992.56
2022-10-31T23:00:41.003Z,96989.44
2022-10-31T23:06:03.117Z,97000.72
2022-10-31T23:11:28.291Z,96999.06
2022-10-31T23:16:56.648Z,97009.78
2022-10-31T23:22:19.586Z,97003.34
2022-10-31T23:27:40.178Z,97003.88
2022-10-31T23:33:01.089Z,96997.69
2022-10-31T23:38:22.313Z,96994.13
2022-10-31T23:43:43.174Z,96992.06
2022-10-31T23:49:04.198Z,96992.75
2022-10-31T23:54:26.367Z,96983.81
2022-10-31T23:59:47.999Z,96983.94
